sensor_id;sensor_type;location;lat;lon;timestamp;pressure;altitude;pressure_sealevel;temperature
75428;BMP280;64008;55.612;37.698;2023-04-24T00:01:36;99696.03;;;19.11
75428;BMP280;64008;55.612;37.698;2023-04-24T00:04:02;99694.09;;;18.93
75428;BMP280;64008;55.612;37.698;2023-04-24T00:06:29;99699.81;;;18.86
75428;BMP280;64008;55.612;37.698;2023-04-24T00:08:59;99696.44;;;18.75
75428;BMP280;64008;55.612;37.698;2023-04-24T00:11:25;99696.91;;;18.83
75428;BMP280;64008;55.612;37.698;2023-04-24T00:13:52;99693.53;;;18.96
75428;BMP280;64008;55.612;37.698;2023-04-24T00:16:17;99690.84;;;18.96
75428;BMP280;64008;55.612;37.698;2023-04-24T00:18:43;99692.97;;;18.75
75428;BMP280;64008;55.612;37.698;2023-04-24T00:21:10;99688.38;;;18.81
75428;BMP280;64008;55.612;37.698;2023-04-24T00:23:35;99695.94;;;18.73
75428;BMP280;64008;55.612;37.698;2023-04-24T00:26:01;99690.19;;;18.61
75428;BMP280;64008;55.612;37.698;2023-04-24T00:28:27;99684.78;;;18.66
75428;BMP280;64008;55.612;37.698;2023-04-24T00:30:53;99688.56;;;18.07
75428;BMP280;64008;55.612;37.698;2023-04-24T00:33:19;99685.00;;;18.17
75428;BMP280;64008;55.612;37.698;2023-04-24T00:35:44;99686.84;;;18.21
75428;BMP280;64008;55.612;37.698;2023-04-24T00:38:10;99684.00;;;18.07
75428;BMP280;64008;55.612;37.698;2023-04-24T00:40:35;99684.16;;;18.21
75428;BMP280;64008;55.612;37.698;2023-04-24T00:43:01;99689.56;;;18.45
75428;BMP280;64008;55.612;37.698;2023-04-24T00:45:27;99696.69;;;18.55
75428;BMP280;64008;55.612;37.698;2023-04-24T00:47:53;99700.88;;;18.32
75428;BMP280;64008;55.612;37.698;2023-04-24T00:50:18;99694.34;;;18.72
75428;BMP280;64008;55.612;37.698;2023-04-24T00:52:46;99697.66;;;18.35
75428;BMP280;64008;55.612;37.698;2023-04-24T00:55:12;99691.59;;;18.53
75428;BMP280;64008;55.612;37.698;2023-04-24T00:57:38;99699.63;;;17.90
75428;BMP280;64008;55.612;37.698;2023-04-24T01:00:05;99686.69;;;18.36
75428;BMP280;64008;55.612;37.698;2023-04-24T01:02:31;99689.28;;;18.42
75428;BMP280;64008;55.612;37.698;2023-04-24T01:05:00;99692.38;;;18.30
75428;BMP280;64008;55.612;37.698;2023-04-24T01:07:27;99691.22;;;17.72
75428;BMP280;64008;55.612;37.698;2023-04-24T01:09:52;99691.59;;;17.56
75428;BMP280;64008;55.612;37.698;2023-04-24T01:12:19;99688.63;;;18.02
75428;BMP280;64008;55.612;37.698;2023-04-24T01:14:44;99691.38;;;17.86
75428;BMP280;64008;55.612;37.698;2023-04-24T01:17:10;99688.47;;;18.17
75428;BMP280;64008;55.612;37.698;2023-04-24T01:19:37;99691.00;;;17.98
75428;BMP280;64008;55.612;37.698;2023-04-24T01:22:08;99681.97;;;18.23
75428;BMP280;64008;55.612;37.698;2023-04-24T01:24:34;99681.50;;;18.21
75428;BMP280;64008;55.612;37.698;2023-04-24T01:26:59;99681.47;;;17.92
75428;BMP280;64008;55.612;37.698;2023-04-24T01:29:25;99683.38;;;17.86
75428;BMP280;64008;55.612;37.698;2023-04-24T01:31:51;99679.78;;;18.01
75428;BMP280;64008;55.612;37.698;2023-04-24T01:34:17;99673.50;;;18.16
75428;BMP280;64008;55.612;37.698;2023-04-24T01:36:43;99668.88;;;18.27
75428;BMP280;64008;55.612;37.698;2023-04-24T01:39:11;99674.50;;;17.91
75428;BMP280;64008;55.612;37.698;2023-04-24T01:41:36;99678.72;;;18.31
75428;BMP280;64008;55.612;37.698;2023-04-24T01:44:02;99670.06;;;18.40
75428;BMP280;64008;55.612;37.698;2023-04-24T01:46:27;99675.63;;;18.43
75428;BMP280;64008;55.612;37.698;2023-04-24T01:48:53;99673.63;;;18.59
75428;BMP280;64008;55.612;37.698;2023-04-24T01:51:19;99678.91;;;18.64
75428;BMP280;64008;55.612;37.698;2023-04-24T01:53:45;99668.19;;;18.88
75428;BMP280;64008;55.612;37.698;2023-04-24T01:56:11;99671.34;;;18.71
75428;BMP280;64008;55.612;37.698;2023-04-24T01:58:36;99672.63;;;18.98
75428;BMP280;64008;55.612;37.698;2023-04-24T02:01:02;99669.19;;;18.73
75428;BMP280;64008;55.612;37.698;2023-04-24T02:03:28;99668.19;;;18.64
75428;BMP280;64008;55.612;37.698;2023-04-24T02:05:53;99676.00;;;18.36
75428;BMP280;64008;55.612;37.698;2023-04-24T02:08:19;99665.81;;;18.39
75428;BMP280;64008;55.612;37.698;2023-04-24T02:10:44;99673.09;;;18.81
75428;BMP280;64008;55.612;37.698;2023-04-24T02:13:10;99672.34;;;18.51
75428;BMP280;64008;55.612;37.698;2023-04-24T02:15:35;99677.19;;;18.49
75428;BMP280;64008;55.612;37.698;2023-04-24T02:18:01;99674.38;;;18.11
75428;BMP280;64008;55.612;37.698;2023-04-24T02:20:27;99673.03;;;17.75
75428;BMP280;64008;55.612;37.698;2023-04-24T02:22:52;99675.91;;;17.83
75428;BMP280;64008;55.612;37.698;2023-04-24T02:25:18;99675.97;;;17.78
75428;BMP280;64008;55.612;37.698;2023-04-24T02:27:43;99679.06;;;17.90
75428;BMP280;64008;55.612;37.698;2023-04-24T02:30:09;99676.19;;;17.82
75428;BMP280;64008;55.612;37.698;2023-04-24T02:32:35;99689.03;;;17.80
75428;BMP280;64008;55.612;37.698;2023-04-24T02:35:01;99687.13;;;17.80
75428;BMP280;64008;55.612;37.698;2023-04-24T02:37:27;99689.50;;;17.87
75428;BMP280;64008;55.612;37.698;2023-04-24T02:39:52;99689.94;;;17.99
75428;BMP280;64008;55.612;37.698;2023-04-24T02:42:18;99684.81;;;18.08
75428;BMP280;64008;55.612;37.698;2023-04-24T02:44:43;99680.41;;;18.22
75428;BMP280;64008;55.612;37.698;2023-04-24T02:47:09;99689.59;;;18.40
75428;BMP280;64008;55.612;37.698;2023-04-24T02:49:34;99695.66;;;18.51
75428;BMP280;64008;55.612;37.698;2023-04-24T02:52:00;99697.44;;;18.31
75428;BMP280;64008;55.612;37.698;2023-04-24T02:54:25;99689.16;;;18.28
75428;BMP280;64008;55.612;37.698;2023-04-24T02:56:51;99693.88;;;18.41
75428;BMP280;64008;55.612;37.698;2023-04-24T02:59:16;99699.03;;;18.27
75428;BMP280;64008;55.612;37.698;2023-04-24T03:01:41;99706.78;;;18.29
75428;BMP280;64008;55.612;37.698;2023-04-24T03:04:07;99705.00;;;18.24
75428;BMP280;64008;55.612;37.698;2023-04-24T03:06:33;99707.50;;;18.40
75428;BMP280;64008;55.612;37.698;2023-04-24T03:09:00;99700.16;;;18.26
75428;BMP280;64008;55.612;37.698;2023-04-24T03:11:26;99698.66;;;18.44
75428;BMP280;64008;55.612;37.698;2023-04-24T03:13:51;99698.75;;;18.34
75428;BMP280;64008;55.612;37.698;2023-04-24T03:16:17;99700.91;;;18.56
75428;BMP280;64008;55.612;37.698;2023-04-24T03:18:42;99703.22;;;18.44
75428;BMP280;64008;55.612;37.698;2023-04-24T03:21:08;99712.19;;;18.53
75428;BMP280;64008;55.612;37.698;2023-04-24T03:23:34;99705.47;;;18.31
75428;BMP280;64008;55.612;37.698;2023-04-24T03:25:59;99708.22;;;18.50
75428;BMP280;64008;55.612;37.698;2023-04-24T03:28:25;99713.97;;;18.39
75428;BMP280;64008;55.612;37.698;2023-04-24T03:30:51;99710.13;;;18.50
75428;BMP280;64008;55.612;37.698;2023-04-24T03:33:17;99706.81;;;18.58
75428;BMP280;64008;55.612;37.698;2023-04-24T03:35:42;99714.22;;;18.66
75428;BMP280;64008;55.612;37.698;2023-04-24T03:38:08;99707.13;;;18.75
75428;BMP280;64008;55.612;37.698;2023-04-24T03:40:33;99706.19;;;18.66
75428;BMP280;64008;55.612;37.698;2023-04-24T03:42:59;99715.44;;;18.79
75428;BMP280;64008;55.612;37.698;2023-04-24T03:45:25;99709.19;;;18.35
75428;BMP280;64008;55.612;37.698;2023-04-24T03:47:50;99708.81;;;18.71
75428;BMP280;64008;55.612;37.698;2023-04-24T03:50:16;99712.22;;;19.01
75428;BMP280;64008;55.612;37.698;2023-04-24T03:52:41;99712.28;;;19.39
75428;BMP280;64008;55.612;37.698;2023-04-24T03:55:07;99716.31;;;19.17
75428;BMP280;64008;55.612;37.698;2023-04-24T03:57:33;99727.31;;;19.16
75428;BMP280;64008;55.612;37.698;2023-04-24T03:59:58;99721.72;;;19.31
75428;BMP280;64008;55.612;37.698;2023-04-24T04:02:24;99714.81;;;20.61
75428;BMP280;64008;55.612;37.698;2023-04-24T04:04:49;99720.66;;;21.05
75428;BMP280;64008;55.612;37.698;2023-04-24T04:07:15;99730.75;;;22.43
75428;BMP280;64008;55.612;37.698;2023-04-24T04:09:40;99725.06;;;22.84
75428;BMP280;64008;55.612;37.698;2023-04-24T04:12:05;99725.22;;;23.40
75428;BMP280;64008;55.612;37.698;2023-04-24T04:14:31;99719.00;;;23.74
75428;BMP280;64008;55.612;37.698;2023-04-24T04:16:56;99726.66;;;24.19
75428;BMP280;64008;55.612;37.698;2023-04-24T04:19:22;99716.28;;;24.30
75428;BMP280;64008;55.612;37.698;2023-04-24T04:21:48;99727.13;;;24.51
75428;BMP280;64008;55.612;37.698;2023-04-24T04:24:18;99724.56;;;24.54
75428;BMP280;64008;55.612;37.698;2023-04-24T04:26:45;99725.91;;;24.69
75428;BMP280;64008;55.612;37.698;2023-04-24T04:29:12;99732.03;;;24.79
75428;BMP280;64008;55.612;37.698;2023-04-24T04:31:38;99735.28;;;24.93
75428;BMP280;64008;55.612;37.698;2023-04-24T04:34:03;99739.03;;;24.80
75428;BMP280;64008;55.612;37.698;2023-04-24T04:36:29;99730.97;;;24.71
75428;BMP280;64008;55.612;37.698;2023-04-24T04:38:54;99736.78;;;24.82
75428;BMP280;64008;55.612;37.698;2023-04-24T04:41:22;99735.44;;;24.67
75428;BMP280;64008;55.612;37.698;2023-04-24T04:43:48;99734.94;;;24.44
75428;BMP280;64008;55.612;37.698;2023-04-24T04:46:13;99737.25;;;24.63
75428;BMP280;64008;55.612;37.698;2023-04-24T04:48:39;99739.59;;;24.64
75428;BMP280;64008;55.612;37.698;2023-04-24T04:51:05;99740.38;;;24.65
75428;BMP280;64008;55.612;37.698;2023-04-24T04:53:31;99747.28;;;24.53
75428;BMP280;64008;55.612;37.698;2023-04-24T04:55:56;99742.53;;;24.50
75428;BMP280;64008;55.612;37.698;2023-04-24T04:58:22;99742.72;;;24.75
75428;BMP280;64008;55.612;37.698;2023-04-24T05:00:48;99741.63;;;24.46
75428;BMP280;64008;55.612;37.698;2023-04-24T05:03:13;99747.41;;;24.66
75428;BMP280;64008;55.612;37.698;2023-04-24T05:05:39;99741.34;;;24.60
75428;BMP280;64008;55.612;37.698;2023-04-24T05:08:06;99743.69;;;24.70
75428;BMP280;64008;55.612;37.698;2023-04-24T05:10:32;99744.78;;;24.48
75428;BMP280;64008;55.612;37.698;2023-04-24T05:12:57;99748.31;;;24.70
75428;BMP280;64008;55.612;37.698;2023-04-24T05:15:23;99744.03;;;24.69
75428;BMP280;64008;55.612;37.698;2023-04-24T05:17:48;99744.34;;;24.38
75428;BMP280;64008;55.612;37.698;2023-04-24T05:20:14;99746.91;;;24.34
75428;BMP280;64008;55.612;37.698;2023-04-24T05:22:40;99746.53;;;24.44
75428;BMP280;64008;55.612;37.698;2023-04-24T05:25:05;99749.53;;;24.51
75428;BMP280;64008;55.612;37.698;2023-04-24T05:27:31;99746.38;;;24.49
75428;BMP280;64008;55.612;37.698;2023-04-24T05:29:57;99741.56;;;24.25
75428;BMP280;64008;55.612;37.698;2023-04-24T05:32:22;99745.03;;;24.26
75428;BMP280;64008;55.612;37.698;2023-04-24T05:34:48;99738.84;;;24.17
75428;BMP280;64008;55.612;37.698;2023-04-24T05:37:13;99747.94;;;24.12
75428;BMP280;64008;55.612;37.698;2023-04-24T05:39:39;99742.84;;;24.58
75428;BMP280;64008;55.612;37.698;2023-04-24T05:42:06;99738.34;;;23.94
75428;BMP280;64008;55.612;37.698;2023-04-24T05:44:31;99746.06;;;24.04
75428;BMP280;64008;55.612;37.698;2023-04-24T05:46:57;99734.34;;;23.91
75428;BMP280;64008;55.612;37.698;2023-04-24T05:49:23;99741.28;;;24.09
75428;BMP280;64008;55.612;37.698;2023-04-24T05:51:48;99735.28;;;24.04
75428;BMP280;64008;55.612;37.698;2023-04-24T05:54:14;99745.72;;;24.14
75428;BMP280;64008;55.612;37.698;2023-04-24T05:56:40;99737.22;;;23.95
75428;BMP280;64008;55.612;37.698;2023-04-24T05:59:06;99739.28;;;23.89
75428;BMP280;64008;55.612;37.698;2023-04-24T06:01:31;99736.22;;;23.99
75428;BMP280;64008;55.612;37.698;2023-04-24T06:03:57;99739.00;;;23.82
75428;BMP280;64008;55.612;37.698;2023-04-24T06:06:23;99739.75;;;24.00
75428;BMP280;64008;55.612;37.698;2023-04-24T06:08:49;99741.03;;;23.76
75428;BMP280;64008;55.612;37.698;2023-04-24T06:11:14;99741.28;;;24.09
75428;BMP280;64008;55.612;37.698;2023-04-24T06:13:40;99747.03;;;24.08
75428;BMP280;64008;55.612;37.698;2023-04-24T06:16:06;99735.31;;;23.86
75428;BMP280;64008;55.612;37.698;2023-04-24T06:18:31;99746.25;;;24.07
75428;BMP280;64008;55.612;37.698;2023-04-24T06:20:57;99746.00;;;24.21
75428;BMP280;64008;55.612;37.698;2023-04-24T06:23:22;99752.06;;;24.27
75428;BMP280;64008;55.612;37.698;2023-04-24T06:25:48;99748.19;;;24.28
75428;BMP280;64008;55.612;37.698;2023-04-24T06:28:13;99741.38;;;24.22
75428;BMP280;64008;55.612;37.698;2023-04-24T06:30:39;99747.22;;;24.41
75428;BMP280;64008;55.612;37.698;2023-04-24T06:33:04;99749.22;;;24.15
75428;BMP280;64008;55.612;37.698;2023-04-24T06:35:30;99740.91;;;24.28
75428;BMP280;64008;55.612;37.698;2023-04-24T06:37:55;99749.66;;;24.55
75428;BMP280;64008;55.612;37.698;2023-04-24T06:40:22;99747.56;;;24.61
75428;BMP280;64008;55.612;37.698;2023-04-24T06:42:47;99737.63;;;24.05
75428;BMP280;64008;55.612;37.698;2023-04-24T06:45:13;99746.13;;;23.86
75428;BMP280;64008;55.612;37.698;2023-04-24T06:47:38;99750.13;;;23.54
75428;BMP280;64008;55.612;37.698;2023-04-24T06:50:04;99754.44;;;23.38
75428;BMP280;64008;55.612;37.698;2023-04-24T06:52:30;99754.41;;;23.55
75428;BMP280;64008;55.612;37.698;2023-04-24T06:55:04;99749.16;;;23.59
75428;BMP280;64008;55.612;37.698;2023-04-24T06:57:30;99750.44;;;23.79
75428;BMP280;64008;55.612;37.698;2023-04-24T06:59:56;99758.81;;;23.69
75428;BMP280;64008;55.612;37.698;2023-04-24T07:02:22;99749.00;;;23.73
75428;BMP280;64008;55.612;37.698;2023-04-24T07:04:48;99747.53;;;23.84
75428;BMP280;64008;55.612;37.698;2023-04-24T07:07:13;99753.13;;;23.61
75428;BMP280;64008;55.612;37.698;2023-04-24T07:09:42;99749.19;;;23.33
75428;BMP280;64008;55.612;37.698;2023-04-24T07:12:08;99758.81;;;22.90
75428;BMP280;64008;55.612;37.698;2023-04-24T07:14:36;99759.59;;;22.82
75428;BMP280;64008;55.612;37.698;2023-04-24T07:17:04;99753.06;;;22.74
75428;BMP280;64008;55.612;37.698;2023-04-24T07:19:33;99756.84;;;22.65
75428;BMP280;64008;55.612;37.698;2023-04-24T07:21:58;99756.28;;;22.94
75428;BMP280;64008;55.612;37.698;2023-04-24T07:24:26;99759.91;;;22.98
75428;BMP280;64008;55.612;37.698;2023-04-24T07:26:53;99755.50;;;23.11
75428;BMP280;64008;55.612;37.698;2023-04-24T07:29:19;99747.91;;;23.30
75428;BMP280;64008;55.612;37.698;2023-04-24T07:31:45;99757.91;;;23.47
75428;BMP280;64008;55.612;37.698;2023-04-24T07:34:10;99751.19;;;23.97
75428;BMP280;64008;55.612;37.698;2023-04-24T07:36:36;99749.03;;;24.20
75428;BMP280;64008;55.612;37.698;2023-04-24T07:39:04;99749.19;;;23.50
75428;BMP280;64008;55.612;37.698;2023-04-24T07:41:30;99752.31;;;23.78
75428;BMP280;64008;55.612;37.698;2023-04-24T07:43:55;99750.81;;;24.16
75428;BMP280;64008;55.612;37.698;2023-04-24T07:46:21;99760.31;;;23.23
75428;BMP280;64008;55.612;37.698;2023-04-24T07:48:46;99744.56;;;22.99
75428;BMP280;64008;55.612;37.698;2023-04-24T07:51:14;99745.53;;;23.11
75428;BMP280;64008;55.612;37.698;2023-04-24T07:53:39;99742.53;;;23.13
75428;BMP280;64008;55.612;37.698;2023-04-24T07:56:05;99748.53;;;23.62
75428;BMP280;64008;55.612;37.698;2023-04-24T07:58:31;99735.69;;;23.07
75428;BMP280;64008;55.612;37.698;2023-04-24T08:00:56;99733.63;;;23.65
75428;BMP280;64008;55.612;37.698;2023-04-24T08:03:22;99736.00;;;23.66
75428;BMP280;64008;55.612;37.698;2023-04-24T08:05:47;99738.69;;;24.22
75428;BMP280;64008;55.612;37.698;2023-04-24T08:08:13;99750.09;;;22.85
75428;BMP280;64008;55.612;37.698;2023-04-24T08:10:39;99744.16;;;22.57
75428;BMP280;64008;55.612;37.698;2023-04-24T08:13:05;99747.25;;;22.10
75428;BMP280;64008;55.612;37.698;2023-04-24T08:15:30;99745.66;;;22.09
75428;BMP280;64008;55.612;37.698;2023-04-24T08:17:57;99733.41;;;22.25
75428;BMP280;64008;55.612;37.698;2023-04-24T08:20:22;99724.44;;;22.39
75428;BMP280;64008;55.612;37.698;2023-04-24T08:22:48;99727.06;;;22.21
75428;BMP280;64008;55.612;37.698;2023-04-24T08:25:14;99721.16;;;22.19
75428;BMP280;64008;55.612;37.698;2023-04-24T08:27:39;99718.09;;;22.43
75428;BMP280;64008;55.612;37.698;2023-04-24T08:30:06;99727.44;;;22.37
75428;BMP280;64008;55.612;37.698;2023-04-24T08:32:33;99739.56;;;22.57
75428;BMP280;64008;55.612;37.698;2023-04-24T08:34:59;99725.47;;;22.29
75428;BMP280;64008;55.612;37.698;2023-04-24T08:37:26;99720.09;;;22.29
75428;BMP280;64008;55.612;37.698;2023-04-24T08:39:52;99726.66;;;23.55
75428;BMP280;64008;55.612;37.698;2023-04-24T08:42:19;99729.38;;;24.11
75428;BMP280;64008;55.612;37.698;2023-04-24T08:44:45;99712.31;;;25.20
75428;BMP280;64008;55.612;37.698;2023-04-24T08:47:11;99717.25;;;24.25
75428;BMP280;64008;55.612;37.698;2023-04-24T08:49:38;99706.63;;;23.82
75428;BMP280;64008;55.612;37.698;2023-04-24T08:52:07;99714.25;;;24.27
75428;BMP280;64008;55.612;37.698;2023-04-24T08:54:36;99708.38;;;24.75
75428;BMP280;64008;55.612;37.698;2023-04-24T08:57:02;99710.03;;;24.38
75428;BMP280;64008;55.612;37.698;2023-04-24T08:59:30;99710.00;;;24.08
75428;BMP280;64008;55.612;37.698;2023-04-24T09:01:56;99703.41;;;24.57
75428;BMP280;64008;55.612;37.698;2023-04-24T09:04:22;99704.69;;;24.29
75428;BMP280;64008;55.612;37.698;2023-04-24T09:06:54;99700.66;;;25.28
75428;BMP280;64008;55.612;37.698;2023-04-24T09:09:21;99716.75;;;25.04
75428;BMP280;64008;55.612;37.698;2023-04-24T09:11:49;99704.53;;;24.56
75428;BMP280;64008;55.612;37.698;2023-04-24T09:14:15;99707.28;;;24.17
75428;BMP280;64008;55.612;37.698;2023-04-24T09:16:41;99702.66;;;23.62
75428;BMP280;64008;55.612;37.698;2023-04-24T09:19:06;99696.50;;;23.61
75428;BMP280;64008;55.612;37.698;2023-04-24T09:21:33;99692.78;;;24.22
75428;BMP280;64008;55.612;37.698;2023-04-24T09:24:05;99679.31;;;24.93
75428;BMP280;64008;55.612;37.698;2023-04-24T09:26:31;99680.91;;;24.94
75428;BMP280;64008;55.612;37.698;2023-04-24T09:28:58;99689.50;;;24.67
75428;BMP280;64008;55.612;37.698;2023-04-24T09:31:27;99677.69;;;25.47
75428;BMP280;64008;55.612;37.698;2023-04-24T09:34:01;99684.03;;;25.17
75428;BMP280;64008;55.612;37.698;2023-04-24T09:36:33;99679.78;;;25.29
75428;BMP280;64008;55.612;37.698;2023-04-24T09:39:00;99662.66;;;25.95
75428;BMP280;64008;55.612;37.698;2023-04-24T09:41:26;99671.09;;;25.68
75428;BMP280;64008;55.612;37.698;2023-04-24T09:43:57;99680.13;;;26.22
75428;BMP280;64008;55.612;37.698;2023-04-24T09:46:32;99675.84;;;25.84
75428;BMP280;64008;55.612;37.698;2023-04-24T09:49:12;99667.25;;;25.82
75428;BMP280;64008;55.612;37.698;2023-04-24T09:51:38;99667.84;;;25.87
75428;BMP280;64008;55.612;37.698;2023-04-24T09:54:16;99657.03;;;25.87
75428;BMP280;64008;55.612;37.698;2023-04-24T09:56:49;99662.97;;;26.18
75428;BMP280;64008;55.612;37.698;2023-04-24T09:59:19;99665.94;;;26.00
75428;BMP280;64008;55.612;37.698;2023-04-24T10:01:45;99658.19;;;26.39
75428;BMP280;64008;55.612;37.698;2023-04-24T10:04:21;99662.03;;;26.50
75428;BMP280;64008;55.612;37.698;2023-04-24T10:06:49;99657.88;;;26.41
75428;BMP280;64008;55.612;37.698;2023-04-24T10:09:16;99654.13;;;26.33
75428;BMP280;64008;55.612;37.698;2023-04-24T10:11:44;99643.19;;;26.98
75428;BMP280;64008;55.612;37.698;2023-04-24T10:14:18;99642.19;;;26.74
75428;BMP280;64008;55.612;37.698;2023-04-24T10:16:44;99636.22;;;27.28
75428;BMP280;64008;55.612;37.698;2023-04-24T10:19:13;99648.38;;;27.03
75428;BMP280;64008;55.612;37.698;2023-04-24T10:21:40;99644.03;;;26.86
75428;BMP280;64008;55.612;37.698;2023-04-24T10:24:08;99644.91;;;27.34
75428;BMP280;64008;55.612;37.698;2023-04-24T10:26:35;99642.28;;;27.53
75428;BMP280;64008;55.612;37.698;2023-04-24T10:29:00;99650.97;;;27.43
75428;BMP280;64008;55.612;37.698;2023-04-24T10:31:27;99638.81;;;26.93
75428;BMP280;64008;55.612;37.698;2023-04-24T10:33:56;99628.09;;;27.60
75428;BMP280;64008;55.612;37.698;2023-04-24T10:36:24;99634.22;;;27.41
75428;BMP280;64008;55.612;37.698;2023-04-24T10:38:52;99639.06;;;26.60
75428;BMP280;64008;55.612;37.698;2023-04-24T10:41:20;99621.88;;;27.44
75428;BMP280;64008;55.612;37.698;2023-04-24T10:43:48;99623.28;;;27.69
75428;BMP280;64008;55.612;37.698;2023-04-24T10:46:30;99621.06;;;27.75
75428;BMP280;64008;55.612;37.698;2023-04-24T10:48:56;99616.59;;;27.83
75428;BMP280;64008;55.612;37.698;2023-04-24T10:51:24;99614.44;;;28.27
75428;BMP280;64008;55.612;37.698;2023-04-24T10:53:50;99623.09;;;28.33
75428;BMP280;64008;55.612;37.698;2023-04-24T10:56:17;99606.53;;;27.83
75428;BMP280;64008;55.612;37.698;2023-04-24T10:58:45;99625.03;;;27.30
75428;BMP280;64008;55.612;37.698;2023-04-24T11:01:32;99617.50;;;27.55
75428;BMP280;64008;55.612;37.698;2023-04-24T11:04:00;99615.41;;;27.17
75428;BMP280;64008;55.612;37.698;2023-04-24T11:06:31;99617.63;;;27.11
75428;BMP280;64008;55.612;37.698;2023-04-24T11:11:30;99608.72;;;27.77
75428;BMP280;64008;55.612;37.698;2023-04-24T11:16:32;99590.81;;;27.92
75428;BMP280;64008;55.612;37.698;2023-04-24T11:19:09;99609.09;;;27.95
75428;BMP280;64008;55.612;37.698;2023-04-24T11:21:56;99587.38;;;27.95
75428;BMP280;64008;55.612;37.698;2023-04-24T11:32:27;99586.16;;;27.58
75428;BMP280;64008;55.612;37.698;2023-04-24T11:34:55;99586.31;;;27.81
75428;BMP280;64008;55.612;37.698;2023-04-24T11:37:22;99587.00;;;27.77
75428;BMP280;64008;55.612;37.698;2023-04-24T11:39:57;99581.94;;;27.60
75428;BMP280;64008;55.612;37.698;2023-04-24T11:42:23;99565.59;;;27.41
75428;BMP280;64008;55.612;37.698;2023-04-24T11:44:49;99569.13;;;27.25
75428;BMP280;64008;55.612;37.698;2023-04-24T11:47:15;99565.81;;;28.03
75428;BMP280;64008;55.612;37.698;2023-04-24T11:49:41;99562.16;;;28.14
75428;BMP280;64008;55.612;37.698;2023-04-24T11:52:06;99560.94;;;28.31
75428;BMP280;64008;55.612;37.698;2023-04-24T11:54:32;99555.94;;;28.33
75428;BMP280;64008;55.612;37.698;2023-04-24T11:56:57;99548.69;;;27.83
75428;BMP280;64008;55.612;37.698;2023-04-24T11:59:23;99546.44;;;28.43
75428;BMP280;64008;55.612;37.698;2023-04-24T12:01:49;99553.81;;;28.04
75428;BMP280;64008;55.612;37.698;2023-04-24T12:04:15;99544.88;;;28.03
75428;BMP280;64008;55.612;37.698;2023-04-24T12:07:03;99542.59;;;28.67
75428;BMP280;64008;55.612;37.698;2023-04-24T12:09:29;99547.13;;;28.82
75428;BMP280;64008;55.612;37.698;2023-04-24T12:11:55;99547.53;;;28.61
75428;BMP280;64008;55.612;37.698;2023-04-24T12:14:22;99544.97;;;27.71
75428;BMP280;64008;55.612;37.698;2023-04-24T12:16:51;99541.06;;;27.88
75428;BMP280;64008;55.612;37.698;2023-04-24T12:19:21;99530.91;;;28.05
75428;BMP280;64008;55.612;37.698;2023-04-24T12:22:01;99543.19;;;27.28
75428;BMP280;64008;55.612;37.698;2023-04-24T12:24:27;99539.25;;;27.76
75428;BMP280;64008;55.612;37.698;2023-04-24T12:26:53;99532.31;;;27.79
75428;BMP280;64008;55.612;37.698;2023-04-24T12:29:22;99534.69;;;28.19
75428;BMP280;64008;55.612;37.698;2023-04-24T12:31:47;99518.97;;;28.71
75428;BMP280;64008;55.612;37.698;2023-04-24T12:34:23;99523.06;;;28.61
75428;BMP280;64008;55.612;37.698;2023-04-24T12:36:50;99516.50;;;28.62
75428;BMP280;64008;55.612;37.698;2023-04-24T12:39:17;99522.28;;;28.61
75428;BMP280;64008;55.612;37.698;2023-04-24T12:41:56;99528.13;;;28.63
75428;BMP280;64008;55.612;37.698;2023-04-24T12:44:34;99516.00;;;28.80
75428;BMP280;64008;55.612;37.698;2023-04-24T12:47:01;99511.63;;;28.98
75428;BMP280;64008;55.612;37.698;2023-04-24T12:49:27;99518.53;;;28.92
75428;BMP280;64008;55.612;37.698;2023-04-24T12:51:53;99518.63;;;28.76
75428;BMP280;64008;55.612;37.698;2023-04-24T12:54:19;99507.03;;;28.33
75428;BMP280;64008;55.612;37.698;2023-04-24T12:56:45;99512.91;;;27.77
75428;BMP280;64008;55.612;37.698;2023-04-24T12:59:10;99504.06;;;27.80
75428;BMP280;64008;55.612;37.698;2023-04-24T13:01:36;99505.47;;;27.39
75428;BMP280;64008;55.612;37.698;2023-04-24T13:04:02;99501.41;;;26.97
75428;BMP280;64008;55.612;37.698;2023-04-24T13:06:27;99488.69;;;27.01
75428;BMP280;64008;55.612;37.698;2023-04-24T13:08:53;99497.00;;;27.08
75428;BMP280;64008;55.612;37.698;2023-04-24T13:11:20;99496.31;;;26.96
75428;BMP280;64008;55.612;37.698;2023-04-24T13:13:47;99495.06;;;27.09
75428;BMP280;64008;55.612;37.698;2023-04-24T13:16:13;99498.03;;;26.72
75428;BMP280;64008;55.612;37.698;2023-04-24T13:18:38;99492.97;;;26.71
75428;BMP280;64008;55.612;37.698;2023-04-24T13:21:04;99496.75;;;26.66
75428;BMP280;64008;55.612;37.698;2023-04-24T13:23:29;99495.44;;;26.92
75428;BMP280;64008;55.612;37.698;2023-04-24T13:25:55;99484.16;;;26.90
75428;BMP280;64008;55.612;37.698;2023-04-24T13:28:24;99482.84;;;26.99
75428;BMP280;64008;55.612;37.698;2023-04-24T13:30:50;99482.75;;;26.80
75428;BMP280;64008;55.612;37.698;2023-04-24T13:33:16;99480.84;;;26.80
75428;BMP280;64008;55.612;37.698;2023-04-24T13:35:42;99481.81;;;26.88
75428;BMP280;64008;55.612;37.698;2023-04-24T13:38:07;99490.53;;;27.13
75428;BMP280;64008;55.612;37.698;2023-04-24T13:40:33;99487.06;;;27.48
75428;BMP280;64008;55.612;37.698;2023-04-24T13:42:59;99482.09;;;27.89
75428;BMP280;64008;55.612;37.698;2023-04-24T13:45:24;99469.91;;;28.21
75428;BMP280;64008;55.612;37.698;2023-04-24T13:47:50;99472.38;;;28.50
75428;BMP280;64008;55.612;37.698;2023-04-24T13:50:15;99471.94;;;28.70
75428;BMP280;64008;55.612;37.698;2023-04-24T13:52:41;99461.97;;;29.05
75428;BMP280;64008;55.612;37.698;2023-04-24T13:55:07;99463.59;;;29.09
75428;BMP280;64008;55.612;37.698;2023-04-24T13:57:32;99469.09;;;29.13
75428;BMP280;64008;55.612;37.698;2023-04-24T13:59:58;99468.09;;;28.98
75428;BMP280;64008;55.612;37.698;2023-04-24T14:02:29;99458.72;;;28.46
75428;BMP280;64008;55.612;37.698;2023-04-24T14:04:54;99455.56;;;28.44
75428;BMP280;64008;55.612;37.698;2023-04-24T14:07:20;99462.88;;;28.40